createdAt,value
2022-12-25T00:04:14.983Z,0.55
2022-12-25T00:09:17.721Z,0.56
2022-12-25T00:14:20.338Z,0.62
2022-12-25T00:19:23.140Z,0.72
2022-12-25T00:24:25.818Z,0.82
2022-12-25T00:29:28.492Z,0.84
2022-12-25T00:34:31.651Z,0.83
2022-12-25T00:39:34.442Z,0.81
2022-12-25T00:44:37.100Z,0.80
2022-12-25T00:49:39.833Z,0.76
2022-12-25T00:54:42.487Z,0.74
2022-12-25T00:59:45.408Z,0.72
2022-12-25T01:04:49.230Z,0.77
2022-12-25T01:09:54.820Z,0.85
2022-12-25T01:14:57.476Z,0.91
2022-12-25T01:20:00.198Z,0.94
2022-12-25T01:25:04.384Z,0.96
2022-12-25T01:30:07.641Z,1.00
2022-12-25T01:35:10.544Z,1.05
2022-12-25T01:40:13.435Z,1.09
2022-12-25T01:45:33.597Z,1.09
2022-12-25T01:50:39.429Z,1.09
2022-12-25T01:55:44.994Z,1.11
2022-12-25T02:00:48.071Z,1.15
2022-12-25T02:05:51.785Z,1.12
2022-12-25T02:10:54.439Z,1.09
2022-12-25T02:16:00.259Z,1.08
2022-12-25T02:21:06.822Z,1.06
2022-12-25T02:26:12.340Z,1.07
2022-12-25T02:31:21.493Z,1.07
2022-12-25T02:36:29.327Z,1.05
2022-12-25T02:41:37.378Z,1.07
2022-12-25T02:46:43.056Z,1.09
2022-12-25T02:51:55.474Z,1.10
2022-12-25T02:57:04.730Z,1.12
2022-12-25T03:02:11.277Z,1.15
2022-12-25T03:07:18.718Z,1.18
2022-12-25T03:12:35.780Z,1.23
2022-12-25T03:17:38.970Z,1.31
2022-12-25T03:22:48.007Z,1.32
2022-12-25T03:27:53.326Z,1.30
2022-12-25T03:33:29.819Z,1.31
2022-12-25T03:38:51.039Z,1.32
2022-12-25T03:44:06.355Z,1.30
2022-12-25T03:49:26.778Z,1.28
2022-12-25T03:54:36.459Z,1.30
2022-12-25T03:59:42.004Z,1.32
2022-12-25T04:04:47.564Z,1.36
2022-12-25T04:09:53.121Z,1.41
2022-12-25T04:14:58.787Z,1.43
2022-12-25T04:20:04.408Z,1.45
2022-12-25T04:25:11.131Z,1.49
2022-12-25T04:30:16.709Z,1.55
2022-12-25T04:35:22.489Z,1.58
2022-12-25T04:40:25.286Z,1.59
2022-12-25T04:45:27.953Z,1.57
2022-12-25T04:50:30.606Z,1.55
2022-12-25T04:55:33.230Z,1.47
2022-12-25T05:00:36.468Z,1.42
2022-12-25T05:05:40.628Z,1.38
2022-12-25T05:10:43.335Z,1.37
2022-12-25T05:15:46.081Z,1.38
2022-12-25T05:20:53.346Z,1.43
2022-12-25T05:25:56.478Z,1.45
2022-12-25T05:30:59.214Z,1.42
2022-12-25T05:36:06.171Z,1.43
2022-12-25T05:41:09.030Z,1.46
2022-12-25T05:46:13.407Z,1.52
2022-12-25T05:51:16.132Z,1.58
2022-12-25T05:56:18.807Z,1.61
2022-12-25T06:01:24.591Z,1.59
2022-12-25T06:06:27.387Z,1.52
2022-12-25T06:11:30.030Z,1.47
2022-12-25T06:16:38.009Z,1.42
2022-12-25T06:21:41.183Z,1.42
2022-12-25T06:26:43.890Z,1.45
2022-12-25T06:31:46.878Z,1.46
2022-12-25T06:36:50.052Z,1.47
2022-12-25T06:41:52.683Z,1.46
2022-12-25T06:46:55.464Z,1.46
2022-12-25T06:51:58.201Z,1.44
2022-12-25T06:57:01.073Z,1.44
2022-12-25T07:02:04.226Z,1.46
2022-12-25T07:07:09.474Z,1.49
2022-12-25T07:12:16.132Z,1.53
2022-12-25T07:17:19.960Z,1.61
2022-12-25T07:22:23.437Z,1.73
2022-12-25T07:27:26.887Z,1.82
2022-12-25T07:32:31.692Z,1.86
2022-12-25T07:37:34.313Z,1.94
2022-12-25T07:42:37.064Z,2.01
2022-12-25T07:47:39.697Z,2.07
2022-12-25T07:52:43.939Z,2.15
2022-12-25T07:57:46.785Z,2.20
2022-12-25T08:02:50.549Z,2.27
2022-12-25T08:07:57.750Z,2.36
2022-12-25T08:13:00.793Z,2.45
2022-12-25T08:18:03.521Z,2.54
2022-12-25T08:23:06.610Z,2.61
2022-12-25T08:28:09.707Z,2.67
2022-12-25T08:33:12.355Z,2.72
2022-12-25T08:38:15.039Z,2.84
2022-12-25T08:43:17.771Z,2.97
2022-12-25T08:48:20.509Z,3.04
2022-12-25T08:53:23.593Z,3.13
2022-12-25T08:58:27.159Z,3.21
2022-12-25T09:03:32.281Z,3.32
2022-12-25T09:08:38.868Z,3.47
2022-12-25T09:13:45.419Z,3.63
2022-12-25T09:18:48.597Z,3.76
2022-12-25T09:23:51.292Z,3.89
2022-12-25T09:28:54.033Z,4.01
2022-12-25T09:33:58.337Z,4.16
2022-12-25T09:39:01.687Z,4.37
2022-12-25T09:44:09.821Z,4.58
2022-12-25T09:49:37.238Z,4.82
2022-12-25T09:54:47.546Z,4.98
2022-12-25T09:59:54.024Z,4.95
2022-12-25T10:04:57.677Z,4.74
2022-12-25T10:10:03.635Z,4.59
2022-12-25T10:15:21.186Z,4.43
2022-12-25T10:20:26.706Z,4.15
2022-12-25T10:25:30.710Z,3.96
2022-12-25T10:30:34.032Z,3.77
2022-12-25T10:35:37.899Z,3.72
2022-12-25T10:40:46.442Z,3.82
2022-12-25T10:45:50.060Z,3.93
2022-12-25T10:50:53.359Z,3.97
2022-12-25T10:55:57.423Z,3.99
2022-12-25T11:01:06.110Z,4.03
2022-12-25T11:06:23.300Z,4.04
2022-12-25T11:11:27.719Z,4.04
2022-12-25T11:16:35.264Z,4.02
2022-12-25T11:21:38.022Z,3.98
2022-12-25T11:26:46.513Z,3.96
2022-12-25T11:31:51.228Z,3.97
2022-12-25T11:36:54.428Z,3.93
2022-12-25T11:42:19.770Z,3.92
2022-12-25T11:47:26.342Z,3.90
2022-12-25T11:52:35.049Z,3.93
2022-12-25T11:57:39.943Z,3.95
2022-12-25T12:02:44.933Z,3.92
2022-12-25T12:07:54.038Z,3.93
2022-12-25T12:13:06.862Z,3.96
2022-12-25T12:18:17.998Z,3.94
2022-12-25T12:23:20.682Z,3.90
2022-12-25T12:28:28.636Z,3.87
2022-12-25T12:33:38.623Z,3.85
2022-12-25T12:38:44.032Z,3.89
2022-12-25T12:43:46.934Z,3.86
2022-12-25T12:48:54.908Z,3.84
2022-12-25T12:54:03.376Z,3.84
2022-12-25T12:59:09.908Z,3.87
2022-12-25T13:04:18.809Z,3.87
2022-12-25T13:09:34.451Z,3.89
2022-12-25T13:14:37.993Z,3.92
2022-12-25T13:19:42.952Z,3.93
2022-12-25T13:31:58.491Z,3.98
2022-12-25T13:37:09.388Z,3.97
2022-12-25T13:42:16.870Z,3.95
2022-12-25T13:47:30.107Z,3.89
2022-12-25T13:52:35.711Z,3.88
2022-12-25T13:57:45.556Z,3.81
2022-12-25T14:02:49.034Z,3.69
2022-12-25T14:07:53.719Z,3.55
2022-12-25T14:13:00.724Z,3.48
2022-12-25T14:18:03.577Z,3.43
2022-12-25T14:23:07.272Z,3.38
2022-12-25T14:28:24.697Z,3.30
2022-12-25T14:33:31.458Z,3.21
2022-12-25T14:38:35.726Z,3.14
2022-12-25T14:43:40.369Z,3.12
2022-12-25T14:48:43.476Z,3.09
2022-12-25T14:53:49.170Z,3.07
2022-12-25T14:58:55.031Z,3.07
2022-12-25T15:04:03.442Z,3.09
2022-12-25T15:09:14.831Z,3.12
2022-12-25T15:14:17.822Z,3.13
2022-12-25T15:19:36.891Z,3.12
2022-12-25T15:24:40.543Z,3.12
2022-12-25T15:35:07.084Z,3.09
2022-12-25T15:40:13.545Z,3.07
2022-12-25T15:45:21.724Z,3.05
2022-12-25T15:50:24.466Z,3.02
2022-12-25T15:55:27.204Z,2.99
2022-12-25T16:00:30.193Z,2.93
2022-12-25T16:05:32.874Z,2.84
2022-12-25T16:10:38.848Z,2.76
2022-12-25T16:15:41.811Z,2.71
2022-12-25T16:20:44.883Z,2.76
2022-12-25T16:25:48.357Z,2.81
2022-12-25T16:30:51.276Z,2.83
2022-12-25T16:35:55.190Z,2.83
2022-12-25T16:41:00.157Z,2.89
2022-12-25T16:46:09.999Z,2.92
2022-12-25T16:51:15.863Z,2.90
2022-12-25T16:56:20.774Z,2.89
2022-12-25T17:01:24.173Z,2.93
2022-12-25T17:06:28.467Z,2.95
2022-12-25T17:11:32.152Z,2.94
2022-12-25T17:16:36.939Z,2.93
2022-12-25T17:21:39.610Z,2.92
2022-12-25T17:26:43.860Z,2.90
2022-12-25T17:31:46.860Z,2.89
2022-12-25T17:36:49.612Z,2.88
2022-12-25T17:41:52.379Z,2.82
2022-12-25T17:46:55.495Z,2.81
2022-12-25T17:51:58.202Z,2.84
2022-12-25T17:57:01.273Z,2.88
2022-12-25T18:02:04.094Z,2.90
2022-12-25T18:07:06.774Z,2.90
2022-12-25T18:12:09.527Z,2.90
2022-12-25T18:17:12.157Z,2.93
2022-12-25T18:22:15.173Z,2.97
2022-12-25T18:27:18.185Z,2.99
2022-12-25T18:32:26.303Z,2.99
2022-12-25T18:37:35.920Z,3.00
2022-12-25T18:42:43.391Z,3.01
2022-12-25T18:47:46.638Z,3.02
2022-12-25T18:52:51.760Z,3.00
2022-12-25T18:57:55.368Z,3.01
2022-12-25T19:02:59.433Z,3.04
2022-12-25T19:08:03.011Z,3.10
2022-12-25T19:13:06.826Z,3.12
2022-12-25T19:18:10.131Z,3.13
2022-12-25T19:23:12.754Z,3.13
2022-12-25T19:28:17.671Z,3.15
2022-12-25T19:33:21.777Z,3.18
2022-12-25T19:38:24.443Z,3.18
2022-12-25T19:43:30.549Z,3.21
2022-12-25T19:48:33.990Z,3.24
2022-12-25T19:53:36.628Z,3.29
2022-12-25T19:58:39.986Z,3.34
2022-12-25T20:03:46.293Z,3.34
2022-12-25T20:08:52.671Z,3.33
2022-12-25T20:13:55.887Z,3.31
2022-12-25T20:18:59.249Z,3.30
2022-12-25T20:24:01.982Z,3.28
2022-12-25T20:29:05.285Z,3.24
2022-12-25T20:34:10.299Z,3.23
2022-12-25T20:39:13.297Z,3.27
2022-12-25T20:44:16.086Z,3.32
2022-12-25T20:49:19.022Z,3.35
2022-12-25T20:54:21.712Z,3.36
2022-12-25T20:59:24.675Z,3.38
2022-12-25T21:04:27.418Z,3.39
2022-12-25T21:09:30.138Z,3.41
2022-12-25T21:14:32.871Z,3.40
2022-12-25T21:19:35.557Z,3.37
2022-12-25T21:24:38.443Z,3.38
2022-12-25T21:29:41.291Z,3.41
2022-12-25T21:34:44.160Z,3.43
2022-12-25T21:39:50.457Z,3.45
2022-12-25T21:44:53.014Z,3.47
2022-12-25T21:49:58.615Z,3.51
2022-12-25T21:55:01.275Z,3.52
2022-12-25T22:00:04.992Z,3.53
2022-12-25T22:05:08.051Z,3.55
2022-12-25T22:10:10.642Z,3.56
2022-12-25T22:15:13.289Z,3.55
2022-12-25T22:20:21.996Z,3.53
2022-12-25T22:25:25.348Z,3.49
2022-12-25T22:30:29.437Z,3.50
2022-12-25T22:35:32.477Z,3.52
2022-12-25T22:40:37.548Z,3.52
2022-12-25T22:45:40.236Z,3.54
2022-12-25T22:50:42.889Z,3.58
2022-12-25T22:55:47.087Z,3.62
2022-12-25T23:00:49.741Z,3.64
2022-12-25T23:05:56.726Z,3.65
2022-12-25T23:11:03.469Z,3.67
2022-12-25T23:16:06.345Z,3.72
2022-12-25T23:22:17.504Z,3.74
2022-12-25T23:27:20.366Z,3.73
2022-12-25T23:32:25.558Z,3.71
2022-12-25T23:37:28.476Z,3.72
2022-12-25T23:42:33.797Z,3.72
2022-12-25T23:47:36.497Z,3.74
2022-12-25T23:52:39.775Z,3.74
2022-12-25T23:57:42.547Z,3.73
